sensor_id;sensor_type;location;lat;lon;timestamp;P1;durP1;ratioP1;P2;durP2;ratioP2
78916;SDS011;68315;48.608;11.436;2024-02-15T00:00:56;2.72;;;2.20;;
78916;SDS011;68315;48.608;11.436;2024-02-15T00:03:24;2.20;;;2.00;;
78916;SDS011;68315;48.608;11.436;2024-02-15T00:05:49;2.92;;;2.35;;
78916;SDS011;68315;48.608;11.436;2024-02-15T00:08:15;2.58;;;2.25;;
78916;SDS011;68315;48.608;11.436;2024-02-15T00:10:40;2.42;;;2.10;;
78916;SDS011;68315;48.608;11.436;2024-02-15T00:13:05;2.45;;;2.25;;
78916;SDS011;68315;48.608;11.436;2024-02-15T00:15:31;2.00;;;1.85;;
78916;SDS011;68315;48.608;11.436;2024-02-15T00:17:56;2.25;;;2.00;;
78916;SDS011;68315;48.608;11.436;2024-02-15T00:20:21;2.03;;;1.80;;
78916;SDS011;68315;48.608;11.436;2024-02-15T00:22:47;2.30;;;2.10;;
78916;SDS011;68315;48.608;11.436;2024-02-15T00:25:13;2.08;;;1.73;;
78916;SDS011;68315;48.608;11.436;2024-02-15T00:27:38;2.55;;;1.92;;
78916;SDS011;68315;48.608;11.436;2024-02-15T00:30:04;3.88;;;2.22;;
78916;SDS011;68315;48.608;11.436;2024-02-15T00:32:32;3.53;;;2.03;;
78916;SDS011;68315;48.608;11.436;2024-02-15T00:34:57;2.55;;;2.00;;
78916;SDS011;68315;48.608;11.436;2024-02-15T00:37:22;1.92;;;1.80;;
78916;SDS011;68315;48.608;11.436;2024-02-15T00:39:48;3.05;;;2.17;;
78916;SDS011;68315;48.608;11.436;2024-02-15T00:42:13;3.63;;;2.28;;
78916;SDS011;68315;48.608;11.436;2024-02-15T00:44:39;2.28;;;2.08;;
78916;SDS011;68315;48.608;11.436;2024-02-15T00:47:04;2.78;;;2.25;;
78916;SDS011;68315;48.608;11.436;2024-02-15T00:49:30;3.83;;;2.55;;
78916;SDS011;68315;48.608;11.436;2024-02-15T00:51:55;2.75;;;2.25;;
78916;SDS011;68315;48.608;11.436;2024-02-15T00:54:20;3.00;;;2.28;;
78916;SDS011;68315;48.608;11.436;2024-02-15T00:56:45;2.88;;;2.58;;
78916;SDS011;68315;48.608;11.436;2024-02-15T00:59:11;2.55;;;2.20;;
78916;SDS011;68315;48.608;11.436;2024-02-15T01:01:36;2.92;;;2.50;;
78916;SDS011;68315;48.608;11.436;2024-02-15T01:04:03;2.40;;;2.13;;
78916;SDS011;68315;48.608;11.436;2024-02-15T01:06:28;3.08;;;2.30;;
78916;SDS011;68315;48.608;11.436;2024-02-15T01:08:54;2.20;;;1.98;;
78916;SDS011;68315;48.608;11.436;2024-02-15T01:11:19;2.50;;;2.20;;
78916;SDS011;68315;48.608;11.436;2024-02-15T01:13:44;1.95;;;1.75;;
78916;SDS011;68315;48.608;11.436;2024-02-15T01:16:09;2.08;;;1.88;;
78916;SDS011;68315;48.608;11.436;2024-02-15T01:18:35;3.13;;;2.33;;
78916;SDS011;68315;48.608;11.436;2024-02-15T01:21:00;2.33;;;2.13;;
78916;SDS011;68315;48.608;11.436;2024-02-15T01:23:26;2.92;;;2.63;;
78916;SDS011;68315;48.608;11.436;2024-02-15T01:25:51;2.88;;;1.95;;
78916;SDS011;68315;48.608;11.436;2024-02-15T01:28:17;2.70;;;2.10;;
78916;SDS011;68315;48.608;11.436;2024-02-15T01:30:42;2.40;;;2.20;;
78916;SDS011;68315;48.608;11.436;2024-02-15T01:33:08;2.45;;;2.25;;
78916;SDS011;68315;48.608;11.436;2024-02-15T01:35:34;2.38;;;2.17;;
78916;SDS011;68315;48.608;11.436;2024-02-15T01:38:00;3.33;;;2.35;;
78916;SDS011;68315;48.608;11.436;2024-02-15T01:40:25;2.50;;;2.30;;
78916;SDS011;68315;48.608;11.436;2024-02-15T01:42:50;2.40;;;2.20;;
78916;SDS011;68315;48.608;11.436;2024-02-15T01:45:16;2.38;;;2.17;;
78916;SDS011;68315;48.608;11.436;2024-02-15T01:47:42;2.10;;;1.90;;
78916;SDS011;68315;48.608;11.436;2024-02-15T01:50:08;1.80;;;1.70;;
78916;SDS011;68315;48.608;11.436;2024-02-15T01:52:36;2.22;;;1.92;;
78916;SDS011;68315;48.608;11.436;2024-02-15T01:55:02;3.38;;;2.15;;
78916;SDS011;68315;48.608;11.436;2024-02-15T01:57:33;2.13;;;1.90;;
78916;SDS011;68315;48.608;11.436;2024-02-15T02:00:00;2.10;;;1.90;;
78916;SDS011;68315;48.608;11.436;2024-02-15T02:02:25;2.20;;;1.83;;
78916;SDS011;68315;48.608;11.436;2024-02-15T02:04:55;2.30;;;2.10;;
78916;SDS011;68315;48.608;11.436;2024-02-15T02:07:20;2.20;;;1.65;;
78916;SDS011;68315;48.608;11.436;2024-02-15T02:09:46;2.13;;;1.92;;
78916;SDS011;68315;48.608;11.436;2024-02-15T02:12:11;2.38;;;2.10;;
78916;SDS011;68315;48.608;11.436;2024-02-15T02:14:36;2.65;;;2.15;;
78916;SDS011;68315;48.608;11.436;2024-02-15T02:17:11;2.20;;;2.00;;
78916;SDS011;68315;48.608;11.436;2024-02-15T02:19:39;2.78;;;2.20;;
78916;SDS011;68315;48.608;11.436;2024-02-15T02:22:05;2.15;;;2.00;;
78916;SDS011;68315;48.608;11.436;2024-02-15T02:24:30;2.28;;;2.08;;
78916;SDS011;68315;48.608;11.436;2024-02-15T02:27:02;2.55;;;2.25;;
78916;SDS011;68315;48.608;11.436;2024-02-15T02:29:29;2.30;;;2.10;;
78916;SDS011;68315;48.608;11.436;2024-02-15T02:31:56;2.47;;;2.28;;
78916;SDS011;68315;48.608;11.436;2024-02-15T02:34:22;3.03;;;2.47;;
78916;SDS011;68315;48.608;11.436;2024-02-15T02:36:47;2.30;;;2.10;;
78916;SDS011;68315;48.608;11.436;2024-02-15T02:39:13;2.78;;;2.30;;
78916;SDS011;68315;48.608;11.436;2024-02-15T02:41:38;2.60;;;2.40;;
78916;SDS011;68315;48.608;11.436;2024-02-15T02:44:03;2.45;;;2.25;;
78916;SDS011;68315;48.608;11.436;2024-02-15T02:46:29;3.15;;;2.05;;
78916;SDS011;68315;48.608;11.436;2024-02-15T02:48:54;2.67;;;2.45;;
78916;SDS011;68315;48.608;11.436;2024-02-15T02:51:20;2.25;;;2.05;;
78916;SDS011;68315;48.608;11.436;2024-02-15T02:53:45;3.20;;;2.85;;
78916;SDS011;68315;48.608;11.436;2024-02-15T02:56:10;3.10;;;2.75;;
78916;SDS011;68315;48.608;11.436;2024-02-15T02:58:35;3.75;;;2.72;;
78916;SDS011;68315;48.608;11.436;2024-02-15T03:01:01;4.03;;;3.08;;
78916;SDS011;68315;48.608;11.436;2024-02-15T03:03:26;6.18;;;4.53;;
78916;SDS011;68315;48.608;11.436;2024-02-15T03:05:51;4.50;;;3.60;;
78916;SDS011;68315;48.608;11.436;2024-02-15T03:08:17;4.70;;;3.53;;
78916;SDS011;68315;48.608;11.436;2024-02-15T03:10:42;4.28;;;3.28;;
78916;SDS011;68315;48.608;11.436;2024-02-15T03:13:08;3.58;;;3.28;;
78916;SDS011;68315;48.608;11.436;2024-02-15T03:15:34;3.30;;;3.00;;
78916;SDS011;68315;48.608;11.436;2024-02-15T03:17:59;5.07;;;3.72;;
78916;SDS011;68315;48.608;11.436;2024-02-15T03:20:24;5.05;;;3.63;;
78916;SDS011;68315;48.608;11.436;2024-02-15T03:22:56;4.60;;;3.90;;
78916;SDS011;68315;48.608;11.436;2024-02-15T03:25:23;4.85;;;3.70;;
78916;SDS011;68315;48.608;11.436;2024-02-15T03:27:49;3.53;;;3.20;;
78916;SDS011;68315;48.608;11.436;2024-02-15T03:30:17;3.80;;;3.42;;
78916;SDS011;68315;48.608;11.436;2024-02-15T03:32:42;3.97;;;3.22;;
78916;SDS011;68315;48.608;11.436;2024-02-15T03:35:08;3.78;;;3.22;;
78916;SDS011;68315;48.608;11.436;2024-02-15T03:37:33;3.70;;;3.40;;
78916;SDS011;68315;48.608;11.436;2024-02-15T03:40:02;3.40;;;3.05;;
78916;SDS011;68315;48.608;11.436;2024-02-15T03:42:29;3.90;;;3.20;;
78916;SDS011;68315;48.608;11.436;2024-02-15T03:44:54;5.30;;;3.05;;
78916;SDS011;68315;48.608;11.436;2024-02-15T03:47:20;3.55;;;3.17;;
78916;SDS011;68315;48.608;11.436;2024-02-15T03:49:45;3.33;;;3.03;;
78916;SDS011;68315;48.608;11.436;2024-02-15T03:52:10;2.95;;;2.58;;
78916;SDS011;68315;48.608;11.436;2024-02-15T03:54:36;3.13;;;2.67;;
78916;SDS011;68315;48.608;11.436;2024-02-15T03:57:01;3.28;;;2.50;;
78916;SDS011;68315;48.608;11.436;2024-02-15T03:59:27;2.97;;;2.63;;
78916;SDS011;68315;48.608;11.436;2024-02-15T04:01:52;3.05;;;2.70;;
78916;SDS011;68315;48.608;11.436;2024-02-15T04:04:18;4.20;;;2.63;;
78916;SDS011;68315;48.608;11.436;2024-02-15T04:06:45;2.92;;;2.63;;
78916;SDS011;68315;48.608;11.436;2024-02-15T04:09:11;3.20;;;2.90;;
78916;SDS011;68315;48.608;11.436;2024-02-15T04:11:36;4.25;;;3.35;;
78916;SDS011;68315;48.608;11.436;2024-02-15T04:14:03;4.13;;;3.50;;
78916;SDS011;68315;48.608;11.436;2024-02-15T04:16:28;4.00;;;3.45;;
78916;SDS011;68315;48.608;11.436;2024-02-15T04:18:55;3.47;;;3.17;;
78916;SDS011;68315;48.608;11.436;2024-02-15T04:21:22;3.80;;;3.42;;
78916;SDS011;68315;48.608;11.436;2024-02-15T04:23:47;3.88;;;3.40;;
78916;SDS011;68315;48.608;11.436;2024-02-15T04:26:13;4.25;;;3.35;;
78916;SDS011;68315;48.608;11.436;2024-02-15T04:28:39;3.88;;;3.42;;
78916;SDS011;68315;48.608;11.436;2024-02-15T04:31:04;3.33;;;2.90;;
78916;SDS011;68315;48.608;11.436;2024-02-15T04:33:33;2.95;;;2.75;;
78916;SDS011;68315;48.608;11.436;2024-02-15T04:35:58;3.22;;;2.78;;
78916;SDS011;68315;48.608;11.436;2024-02-15T04:38:23;3.60;;;2.70;;
78916;SDS011;68315;48.608;11.436;2024-02-15T04:40:50;3.20;;;2.40;;
78916;SDS011;68315;48.608;11.436;2024-02-15T04:43:16;3.53;;;2.20;;
78916;SDS011;68315;48.608;11.436;2024-02-15T04:45:41;2.35;;;1.90;;
78916;SDS011;68315;48.608;11.436;2024-02-15T04:48:06;2.60;;;1.80;;
78916;SDS011;68315;48.608;11.436;2024-02-15T04:50:32;2.13;;;1.92;;
78916;SDS011;68315;48.608;11.436;2024-02-15T04:52:57;2.65;;;1.98;;
78916;SDS011;68315;48.608;11.436;2024-02-15T04:55:22;1.63;;;1.52;;
78916;SDS011;68315;48.608;11.436;2024-02-15T04:57:48;2.95;;;1.92;;
78916;SDS011;68315;48.608;11.436;2024-02-15T05:00:14;1.98;;;1.75;;
78916;SDS011;68315;48.608;11.436;2024-02-15T05:02:41;2.00;;;1.90;;
78916;SDS011;68315;48.608;11.436;2024-02-15T06:19:09;5.60;;;3.93;;
78916;SDS011;68315;48.608;11.436;2024-02-15T06:21:34;5.10;;;4.20;;
78916;SDS011;68315;48.608;11.436;2024-02-15T06:23:59;5.53;;;4.40;;
78916;SDS011;68315;48.608;11.436;2024-02-15T06:26:25;7.07;;;4.50;;
78916;SDS011;68315;48.608;11.436;2024-02-15T06:28:50;5.63;;;4.28;;
78916;SDS011;68315;48.608;11.436;2024-02-15T06:31:34;4.13;;;3.65;;
78916;SDS011;68315;48.608;11.436;2024-02-15T06:34:18;5.95;;;4.03;;
78916;SDS011;68315;48.608;11.436;2024-02-15T06:37:02;6.97;;;4.13;;
78916;SDS011;68315;48.608;11.436;2024-02-15T06:39:46;6.07;;;4.22;;
78916;SDS011;68315;48.608;11.436;2024-02-15T06:42:12;4.40;;;3.83;;
78916;SDS011;68315;48.608;11.436;2024-02-15T06:44:43;5.10;;;4.10;;
78916;SDS011;68315;48.608;11.436;2024-02-15T06:47:12;5.43;;;3.78;;
78916;SDS011;68315;48.608;11.436;2024-02-15T06:49:40;5.03;;;4.47;;
78916;SDS011;68315;48.608;11.436;2024-02-15T06:52:09;4.60;;;4.20;;
78916;SDS011;68315;48.608;11.436;2024-02-15T06:54:36;4.40;;;3.55;;
78916;SDS011;68315;48.608;11.436;2024-02-15T06:57:05;4.82;;;3.67;;
78916;SDS011;68315;48.608;11.436;2024-02-15T06:59:31;5.55;;;3.28;;
78916;SDS011;68315;48.608;11.436;2024-02-15T07:01:59;4.15;;;3.55;;
78916;SDS011;68315;48.608;11.436;2024-02-15T07:04:25;4.07;;;3.67;;
78916;SDS011;68315;48.608;11.436;2024-02-15T07:06:51;4.78;;;3.53;;
78916;SDS011;68315;48.608;11.436;2024-02-15T07:09:19;3.92;;;3.20;;
78916;SDS011;68315;48.608;11.436;2024-02-15T07:11:45;3.83;;;3.10;;
78916;SDS011;68315;48.608;11.436;2024-02-15T07:14:11;3.65;;;3.17;;
78916;SDS011;68315;48.608;11.436;2024-02-15T07:16:37;4.47;;;3.20;;
78916;SDS011;68315;48.608;11.436;2024-02-15T07:19:03;3.58;;;3.08;;
78916;SDS011;68315;48.608;11.436;2024-02-15T07:21:28;3.55;;;3.25;;
78916;SDS011;68315;48.608;11.436;2024-02-15T07:23:54;4.68;;;3.65;;
78916;SDS011;68315;48.608;11.436;2024-02-15T07:26:20;5.60;;;4.78;;
78916;SDS011;68315;48.608;11.436;2024-02-15T07:28:53;4.43;;;3.80;;
78916;SDS011;68315;48.608;11.436;2024-02-15T07:31:22;5.22;;;4.53;;
78916;SDS011;68315;48.608;11.436;2024-02-15T07:33:48;5.20;;;4.53;;
78916;SDS011;68315;48.608;11.436;2024-02-15T07:36:19;4.88;;;4.20;;
78916;SDS011;68315;48.608;11.436;2024-02-15T07:38:46;8.40;;;5.57;;
78916;SDS011;68315;48.608;11.436;2024-02-15T07:41:13;4.75;;;4.20;;
78916;SDS011;68315;48.608;11.436;2024-02-15T07:43:38;5.80;;;4.68;;
78916;SDS011;68315;48.608;11.436;2024-02-15T07:46:04;7.22;;;5.20;;
78916;SDS011;68315;48.608;11.436;2024-02-15T07:48:29;6.50;;;4.85;;
78916;SDS011;68315;48.608;11.436;2024-02-15T07:50:55;6.68;;;4.97;;
78916;SDS011;68315;48.608;11.436;2024-02-15T07:53:20;8.75;;;5.15;;
78916;SDS011;68315;48.608;11.436;2024-02-15T07:55:45;5.60;;;4.72;;
78916;SDS011;68315;48.608;11.436;2024-02-15T07:58:13;6.82;;;4.68;;
78916;SDS011;68315;48.608;11.436;2024-02-15T08:00:38;9.02;;;4.65;;
78916;SDS011;68315;48.608;11.436;2024-02-15T08:03:04;6.05;;;5.03;;
78916;SDS011;68315;48.608;11.436;2024-02-15T08:05:29;5.93;;;4.85;;
78916;SDS011;68315;48.608;11.436;2024-02-15T08:07:54;7.25;;;4.68;;
78916;SDS011;68315;48.608;11.436;2024-02-15T08:10:22;5.95;;;4.88;;
78916;SDS011;68315;48.608;11.436;2024-02-15T08:12:48;6.28;;;4.72;;
78916;SDS011;68315;48.608;11.436;2024-02-15T08:15:17;7.20;;;5.00;;
78916;SDS011;68315;48.608;11.436;2024-02-15T08:17:43;6.78;;;4.75;;
78916;SDS011;68315;48.608;11.436;2024-02-15T08:20:11;6.82;;;5.10;;
78916;SDS011;68315;48.608;11.436;2024-02-15T08:22:38;7.22;;;4.90;;
78916;SDS011;68315;48.608;11.436;2024-02-15T08:25:05;5.90;;;5.10;;
78916;SDS011;68315;48.608;11.436;2024-02-15T08:27:31;6.35;;;4.63;;
78916;SDS011;68315;48.608;11.436;2024-02-15T08:29:58;6.63;;;4.53;;
78916;SDS011;68315;48.608;11.436;2024-02-15T08:32:24;7.43;;;5.05;;
78916;SDS011;68315;48.608;11.436;2024-02-15T08:34:49;7.45;;;5.38;;
78916;SDS011;68315;48.608;11.436;2024-02-15T08:37:15;7.07;;;5.90;;
78916;SDS011;68315;48.608;11.436;2024-02-15T08:39:40;6.85;;;5.75;;
78916;SDS011;68315;48.608;11.436;2024-02-15T08:42:05;7.70;;;5.45;;
78916;SDS011;68315;48.608;11.436;2024-02-15T08:44:31;6.72;;;5.10;;
78916;SDS011;68315;48.608;11.436;2024-02-15T08:46:56;6.82;;;5.10;;
78916;SDS011;68315;48.608;11.436;2024-02-15T08:49:21;6.97;;;5.18;;
78916;SDS011;68315;48.608;11.436;2024-02-15T08:51:47;5.25;;;4.70;;
78916;SDS011;68315;48.608;11.436;2024-02-15T08:54:12;5.22;;;4.60;;
78916;SDS011;68315;48.608;11.436;2024-02-15T08:56:37;5.18;;;4.05;;
78916;SDS011;68315;48.608;11.436;2024-02-15T08:59:02;4.47;;;3.92;;
78916;SDS011;68315;48.608;11.436;2024-02-15T09:01:28;5.40;;;4.20;;
78916;SDS011;68315;48.608;11.436;2024-02-15T09:03:53;5.97;;;5.20;;
78916;SDS011;68315;48.608;11.436;2024-02-15T09:06:18;7.32;;;4.53;;
78916;SDS011;68315;48.608;11.436;2024-02-15T09:08:44;5.85;;;4.20;;
78916;SDS011;68315;48.608;11.436;2024-02-15T09:11:09;4.63;;;4.15;;
78916;SDS011;68315;48.608;11.436;2024-02-15T09:13:37;4.95;;;4.00;;
78916;SDS011;68315;48.608;11.436;2024-02-15T09:16:02;5.55;;;4.13;;
78916;SDS011;68315;48.608;11.436;2024-02-15T09:18:28;6.47;;;4.28;;
78916;SDS011;68315;48.608;11.436;2024-02-15T09:20:53;4.97;;;4.20;;
78916;SDS011;68315;48.608;11.436;2024-02-15T09:23:20;5.20;;;3.95;;
78916;SDS011;68315;48.608;11.436;2024-02-15T09:25:48;4.63;;;4.07;;
78916;SDS011;68315;48.608;11.436;2024-02-15T09:28:15;5.13;;;3.75;;
78916;SDS011;68315;48.608;11.436;2024-02-15T09:30:40;5.43;;;3.75;;
78916;SDS011;68315;48.608;11.436;2024-02-15T09:33:05;4.13;;;3.33;;
78916;SDS011;68315;48.608;11.436;2024-02-15T09:35:31;5.25;;;3.58;;
78916;SDS011;68315;48.608;11.436;2024-02-15T09:37:56;5.05;;;3.53;;
78916;SDS011;68315;48.608;11.436;2024-02-15T09:40:22;4.28;;;3.20;;
78916;SDS011;68315;48.608;11.436;2024-02-15T09:42:51;4.53;;;3.15;;
78916;SDS011;68315;48.608;11.436;2024-02-15T09:45:17;4.45;;;3.83;;
78916;SDS011;68315;48.608;11.436;2024-02-15T09:47:43;6.75;;;3.88;;
78916;SDS011;68315;48.608;11.436;2024-02-15T09:50:10;4.07;;;3.50;;
78916;SDS011;68315;48.608;11.436;2024-02-15T09:52:38;3.78;;;2.90;;
78916;SDS011;68315;48.608;11.436;2024-02-15T09:55:05;2.80;;;2.50;;
78916;SDS011;68315;48.608;11.436;2024-02-15T09:57:35;5.00;;;2.72;;
78916;SDS011;68315;48.608;11.436;2024-02-15T10:00:00;5.60;;;3.47;;
78916;SDS011;68315;48.608;11.436;2024-02-15T10:02:28;4.85;;;2.85;;
78916;SDS011;68315;48.608;11.436;2024-02-15T10:04:55;3.20;;;2.90;;
78916;SDS011;68315;48.608;11.436;2024-02-15T10:07:22;3.35;;;2.80;;
78916;SDS011;68315;48.608;11.436;2024-02-15T10:09:52;3.33;;;2.15;;
78916;SDS011;68315;48.608;11.436;2024-02-15T10:12:17;5.13;;;3.35;;
78916;SDS011;68315;48.608;11.436;2024-02-15T10:14:50;4.07;;;2.67;;
78916;SDS011;68315;48.608;11.436;2024-02-15T10:17:17;4.15;;;2.90;;
78916;SDS011;68315;48.608;11.436;2024-02-15T10:19:43;2.92;;;2.50;;
78916;SDS011;68315;48.608;11.436;2024-02-15T10:22:09;2.97;;;2.17;;
78916;SDS011;68315;48.608;11.436;2024-02-15T10:24:35;3.97;;;2.63;;
78916;SDS011;68315;48.608;11.436;2024-02-15T10:27:02;3.03;;;2.15;;
78916;SDS011;68315;48.608;11.436;2024-02-15T10:29:29;3.08;;;2.00;;
78916;SDS011;68315;48.608;11.436;2024-02-15T10:31:57;4.30;;;2.50;;
78916;SDS011;68315;48.608;11.436;2024-02-15T10:34:24;3.15;;;1.92;;
78916;SDS011;68315;48.608;11.436;2024-02-15T10:36:52;2.95;;;2.00;;
78916;SDS011;68315;48.608;11.436;2024-02-15T10:39:36;2.20;;;2.00;;
78916;SDS011;68315;48.608;11.436;2024-02-15T10:42:01;2.22;;;1.90;;
78916;SDS011;68315;48.608;11.436;2024-02-15T10:44:28;3.92;;;2.13;;
78916;SDS011;68315;48.608;11.436;2024-02-15T10:46:53;2.70;;;1.75;;
78916;SDS011;68315;48.608;11.436;2024-02-15T10:49:22;2.58;;;2.15;;
78916;SDS011;68315;48.608;11.436;2024-02-15T10:51:55;3.70;;;2.10;;
78916;SDS011;68315;48.608;11.436;2024-02-15T10:54:25;2.47;;;1.80;;
78916;SDS011;68315;48.608;11.436;2024-02-15T10:57:05;3.20;;;1.70;;
78916;SDS011;68315;48.608;11.436;2024-02-15T10:59:34;3.08;;;1.80;;
78916;SDS011;68315;48.608;11.436;2024-02-15T11:02:10;3.08;;;1.90;;
78916;SDS011;68315;48.608;11.436;2024-02-15T11:04:50;2.33;;;1.70;;
78916;SDS011;68315;48.608;11.436;2024-02-15T11:07:21;7.80;;;2.10;;
78916;SDS011;68315;48.608;11.436;2024-02-15T11:09:48;1.88;;;1.58;;
78916;SDS011;68315;48.608;11.436;2024-02-15T11:12:13;3.35;;;1.67;;
78916;SDS011;68315;48.608;11.436;2024-02-15T11:14:42;1.63;;;1.30;;
78916;SDS011;68315;48.608;11.436;2024-02-15T11:17:09;2.10;;;1.48;;
78916;SDS011;68315;48.608;11.436;2024-02-15T11:22:09;3.63;;;1.35;;
78916;SDS011;68315;48.608;11.436;2024-02-15T11:24:45;2.65;;;1.50;;
78916;SDS011;68315;48.608;11.436;2024-02-15T11:27:27;2.38;;;1.30;;
78916;SDS011;68315;48.608;11.436;2024-02-15T11:35:16;3.90;;;1.40;;
78916;SDS011;68315;48.608;11.436;2024-02-15T11:37:49;3.08;;;1.40;;
78916;SDS011;68315;48.608;11.436;2024-02-15T11:40:18;1.88;;;1.10;;
78916;SDS011;68315;48.608;11.436;2024-02-15T11:42:51;1.63;;;1.27;;
78916;SDS011;68315;48.608;11.436;2024-02-15T11:45:20;2.42;;;1.27;;
78916;SDS011;68315;48.608;11.436;2024-02-15T11:47:49;1.67;;;1.10;;
78916;SDS011;68315;48.608;11.436;2024-02-15T11:50:17;3.78;;;1.40;;
78916;SDS011;68315;48.608;11.436;2024-02-15T11:52:46;3.72;;;1.45;;
78916;SDS011;68315;48.608;11.436;2024-02-15T11:55:14;2.63;;;1.30;;
78916;SDS011;68315;48.608;11.436;2024-02-15T11:57:44;2.22;;;1.30;;
78916;SDS011;68315;48.608;11.436;2024-02-15T12:00:25;2.67;;;1.20;;
78916;SDS011;68315;48.608;11.436;2024-02-15T12:03:10;1.60;;;1.20;;
78916;SDS011;68315;48.608;11.436;2024-02-15T12:05:54;1.73;;;1.10;;
78916;SDS011;68315;48.608;11.436;2024-02-15T12:08:39;1.65;;;1.05;;
78916;SDS011;68315;48.608;11.436;2024-02-15T12:11:22;2.00;;;1.38;;
78916;SDS011;68315;48.608;11.436;2024-02-15T12:14:06;4.03;;;1.25;;
78916;SDS011;68315;48.608;11.436;2024-02-15T12:17:02;1.92;;;1.40;;
78916;SDS011;68315;48.608;11.436;2024-02-15T12:19:47;4.10;;;1.10;;
78916;SDS011;68315;48.608;11.436;2024-02-15T12:22:20;2.30;;;1.40;;
78916;SDS011;68315;48.608;11.436;2024-02-15T12:25:00;2.08;;;1.13;;
78916;SDS011;68315;48.608;11.436;2024-02-15T12:27:26;5.28;;;1.40;;
78916;SDS011;68315;48.608;11.436;2024-02-15T12:29:56;1.65;;;1.00;;
78916;SDS011;68315;48.608;11.436;2024-02-15T12:32:23;4.70;;;1.60;;
78916;SDS011;68315;48.608;11.436;2024-02-15T12:34:49;3.13;;;1.10;;
78916;SDS011;68315;48.608;11.436;2024-02-15T12:37:17;2.65;;;1.23;;
78916;SDS011;68315;48.608;11.436;2024-02-15T12:39:43;2.28;;;1.52;;
78916;SDS011;68315;48.608;11.436;2024-02-15T12:42:08;1.70;;;1.30;;
78916;SDS011;68315;48.608;11.436;2024-02-15T12:44:34;2.80;;;1.42;;
78916;SDS011;68315;48.608;11.436;2024-02-15T12:47:00;1.98;;;1.30;;
78916;SDS011;68315;48.608;11.436;2024-02-15T12:49:28;2.67;;;1.30;;
78916;SDS011;68315;48.608;11.436;2024-02-15T12:55:33;2.15;;;1.23;;
78916;SDS011;68315;48.608;11.436;2024-02-15T12:57:52;3.05;;;1.40;;
78916;SDS011;68315;48.608;11.436;2024-02-15T13:00:20;2.50;;;1.45;;
78916;SDS011;68315;48.608;11.436;2024-02-15T13:03:01;2.83;;;1.10;;
78916;SDS011;68315;48.608;11.436;2024-02-15T13:05:28;1.42;;;1.20;;
78916;SDS011;68315;48.608;11.436;2024-02-15T13:07:55;3.08;;;1.10;;
78916;SDS011;68315;48.608;11.436;2024-02-15T13:10:21;1.67;;;1.30;;
78916;SDS011;68315;48.608;11.436;2024-02-15T13:12:47;1.60;;;1.15;;
78916;SDS011;68315;48.608;11.436;2024-02-15T13:15:13;2.90;;;1.52;;
78916;SDS011;68315;48.608;11.436;2024-02-15T13:17:40;2.65;;;1.10;;
78916;SDS011;68315;48.608;11.436;2024-02-15T13:20:09;2.47;;;1.42;;
78916;SDS011;68315;48.608;11.436;2024-02-15T13:22:38;3.65;;;1.20;;
78916;SDS011;68315;48.608;11.436;2024-02-15T13:25:04;2.35;;;1.40;;
78916;SDS011;68315;48.608;11.436;2024-02-15T13:27:32;2.65;;;1.52;;
78916;SDS011;68315;48.608;11.436;2024-02-15T13:29:58;2.25;;;1.38;;
78916;SDS011;68315;48.608;11.436;2024-02-15T13:32:23;1.92;;;1.17;;
78916;SDS011;68315;48.608;11.436;2024-02-15T13:34:48;1.25;;;1.15;;
78916;SDS011;68315;48.608;11.436;2024-02-15T13:37:19;2.38;;;1.35;;
78916;SDS011;68315;48.608;11.436;2024-02-15T13:39:46;2.58;;;1.33;;
78916;SDS011;68315;48.608;11.436;2024-02-15T13:42:12;2.25;;;1.30;;
78916;SDS011;68315;48.608;11.436;2024-02-15T13:44:38;1.27;;;1.17;;
78916;SDS011;68315;48.608;11.436;2024-02-15T13:47:03;1.13;;;1.00;;
78916;SDS011;68315;48.608;11.436;2024-02-15T13:49:28;2.33;;;1.17;;
78916;SDS011;68315;48.608;11.436;2024-02-15T13:51:56;1.98;;;1.00;;
78916;SDS011;68315;48.608;11.436;2024-02-15T13:54:27;3.53;;;1.15;;
78916;SDS011;68315;48.608;11.436;2024-02-15T13:56:52;2.00;;;1.20;;
78916;SDS011;68315;48.608;11.436;2024-02-15T13:59:17;3.70;;;1.30;;
78916;SDS011;68315;48.608;11.436;2024-02-15T14:01:43;2.95;;;1.42;;
78916;SDS011;68315;48.608;11.436;2024-02-15T14:04:10;1.92;;;1.08;;
78916;SDS011;68315;48.608;11.436;2024-02-15T14:06:36;2.67;;;1.17;;
78916;SDS011;68315;48.608;11.436;2024-02-15T14:09:02;1.25;;;1.10;;
78916;SDS011;68315;48.608;11.436;2024-02-15T14:11:28;2.63;;;1.38;;
78916;SDS011;68315;48.608;11.436;2024-02-15T14:13:53;2.17;;;1.10;;
78916;SDS011;68315;48.608;11.436;2024-02-15T14:16:23;1.80;;;1.00;;
78916;SDS011;68315;48.608;11.436;2024-02-15T14:18:48;2.75;;;1.10;;
78916;SDS011;68315;48.608;11.436;2024-02-15T14:21:15;2.08;;;1.10;;
78916;SDS011;68315;48.608;11.436;2024-02-15T14:23:41;2.80;;;0.95;;
78916;SDS011;68315;48.608;11.436;2024-02-15T14:26:07;2.85;;;1.15;;
78916;SDS011;68315;48.608;11.436;2024-02-15T14:28:32;2.05;;;1.10;;
78916;SDS011;68315;48.608;11.436;2024-02-15T14:30:57;2.67;;;1.10;;
78916;SDS011;68315;48.608;11.436;2024-02-15T14:33:41;1.38;;;1.10;;
78916;SDS011;68315;48.608;11.436;2024-02-15T14:36:06;1.53;;;0.90;;
78916;SDS011;68315;48.608;11.436;2024-02-15T14:38:32;1.20;;;0.93;;
78916;SDS011;68315;48.608;11.436;2024-02-15T14:40:59;2.67;;;1.20;;
78916;SDS011;68315;48.608;11.436;2024-02-15T14:43:26;2.20;;;1.17;;
78916;SDS011;68315;48.608;11.436;2024-02-15T14:45:51;3.03;;;1.40;;
78916;SDS011;68315;48.608;11.436;2024-02-15T14:48:18;0.90;;;0.88;;
78916;SDS011;68315;48.608;11.436;2024-02-15T14:50:45;1.60;;;1.00;;
78916;SDS011;68315;48.608;11.436;2024-02-15T14:53:11;1.70;;;1.00;;
78916;SDS011;68315;48.608;11.436;2024-02-15T14:55:38;2.30;;;1.10;;
78916;SDS011;68315;48.608;11.436;2024-02-15T14:58:04;3.10;;;1.20;;
78916;SDS011;68315;48.608;11.436;2024-02-15T15:00:32;2.95;;;1.20;;
78916;SDS011;68315;48.608;11.436;2024-02-15T15:02:58;1.90;;;1.30;;
78916;SDS011;68315;48.608;11.436;2024-02-15T15:05:23;2.25;;;1.17;;
78916;SDS011;68315;48.608;11.436;2024-02-15T15:08:07;1.55;;;1.13;;
78916;SDS011;68315;48.608;11.436;2024-02-15T15:10:51;1.83;;;1.30;;
78916;SDS011;68315;48.608;11.436;2024-02-15T15:13:35;3.25;;;1.17;;
78916;SDS011;68315;48.608;11.436;2024-02-15T15:16:01;2.20;;;1.15;;
78916;SDS011;68315;48.608;11.436;2024-02-15T15:18:31;2.72;;;1.00;;
78916;SDS011;68315;48.608;11.436;2024-02-15T15:20:57;2.33;;;1.10;;
78916;SDS011;68315;48.608;11.436;2024-02-15T15:23:24;4.68;;;1.50;;
78916;SDS011;68315;48.608;11.436;2024-02-15T15:25:50;2.42;;;1.25;;
78916;SDS011;68315;48.608;11.436;2024-02-15T15:28:15;2.40;;;1.23;;
78916;SDS011;68315;48.608;11.436;2024-02-15T15:30:40;1.60;;;1.00;;
78916;SDS011;68315;48.608;11.436;2024-02-15T15:33:06;1.63;;;1.00;;
78916;SDS011;68315;48.608;11.436;2024-02-15T15:35:34;3.20;;;1.02;;
78916;SDS011;68315;48.608;11.436;2024-02-15T15:37:59;1.83;;;1.30;;
78916;SDS011;68315;48.608;11.436;2024-02-15T15:40:25;2.42;;;1.10;;
78916;SDS011;68315;48.608;11.436;2024-02-15T15:42:51;1.73;;;1.27;;
78916;SDS011;68315;48.608;11.436;2024-02-15T15:45:17;4.40;;;1.42;;
78916;SDS011;68315;48.608;11.436;2024-02-15T15:47:42;1.50;;;1.40;;
78916;SDS011;68315;48.608;11.436;2024-02-15T15:50:07;2.22;;;1.20;;
78916;SDS011;68315;48.608;11.436;2024-02-15T15:52:36;2.28;;;1.20;;
78916;SDS011;68315;48.608;11.436;2024-02-15T15:55:03;1.98;;;1.25;;
78916;SDS011;68315;48.608;11.436;2024-02-15T15:57:28;3.20;;;1.30;;
78916;SDS011;68315;48.608;11.436;2024-02-15T15:59:54;1.58;;;1.10;;